createdAt,value
2019-04-23T00:00:23.943Z,4.83
2019-04-23T00:03:00.904Z,6.77
2019-04-23T00:10:35.187Z,3.13
2019-04-23T00:13:05.019Z,4.73
2019-04-23T00:16:03.723Z,3.67
2019-04-23T00:18:36.822Z,6.07
2019-04-23T00:21:20.236Z,8.07
2019-04-23T00:24:07.534Z,4.70
2019-04-23T00:26:35.464Z,7.20
2019-04-23T00:29:08.274Z,5.23
2019-04-23T00:31:34.986Z,3.50
2019-04-23T00:34:24.658Z,6.47
2019-04-23T00:36:58.959Z,8.47
2019-04-23T00:39:08.620Z,7.43
2019-04-23T00:41:44.191Z,4.17
2019-04-23T00:44:26.793Z,4.33
2019-04-23T00:46:46.583Z,4.50
2019-04-23T00:49:29.154Z,8.03
2019-04-23T00:52:00.705Z,4.90
2019-04-23T00:54:35.635Z,5.47
2019-04-23T00:57:07.405Z,3.00
2019-04-23T00:59:41.146Z,3.60
2019-04-23T01:02:13.292Z,4.90
2019-04-23T01:04:41.940Z,6.27
2019-04-23T01:07:16.387Z,10.80
2019-04-23T01:10:02.846Z,5.63
2019-04-23T01:12:22.587Z,7.27
2019-04-23T01:14:56.104Z,7.27
2019-04-23T01:17:35.127Z,5.17
2019-04-23T01:20:04.298Z,3.67
2019-04-23T01:22:12.586Z,5.13
2019-04-23T01:24:48.779Z,7.97
2019-04-23T01:30:23.581Z,6.27
2019-04-23T01:32:49.302Z,5.37
2019-04-23T01:35:36.547Z,7.83
2019-04-23T01:37:55.788Z,5.43
2019-04-23T01:40:31.907Z,7.53
2019-04-23T01:43:03.022Z,4.20
2019-04-23T01:48:22.529Z,4.83
2019-04-23T01:50:43.399Z,4.77
2019-04-23T01:53:16.710Z,4.27
2019-04-23T01:55:49.213Z,5.30
2019-04-23T01:58:38.261Z,6.40
2019-04-23T02:00:50.772Z,4.90
2019-04-23T02:03:20.606Z,8.40
2019-04-23T02:05:55.577Z,4.57
2019-04-23T02:08:20.872Z,4.77
2019-04-23T02:11:00.367Z,6.07
2019-04-23T02:13:38.787Z,4.23
2019-04-23T02:16:01.301Z,6.73
2019-04-23T02:18:36.018Z,7.17
2019-04-23T02:21:07.575Z,5.47
2019-04-23T02:23:42.478Z,4.13
2019-04-23T02:26:26.203Z,8.50
2019-04-23T02:28:53.488Z,6.33
2019-04-23T02:31:44.866Z,5.40
2019-04-23T02:39:22.524Z,5.13
2019-04-23T02:41:47.018Z,5.37
2019-04-23T02:46:54.095Z,7.27
2019-04-23T02:51:59.272Z,3.20
2019-04-23T02:54:36.721Z,4.20
2019-04-23T02:56:59.721Z,4.27
2019-04-23T03:02:38.461Z,4.87
2019-04-23T03:07:40.931Z,4.50
2019-04-23T03:10:02.876Z,6.33
2019-04-23T03:21:15.605Z,7.77
2019-04-23T03:23:52.135Z,10.20
2019-04-23T03:28:57.834Z,5.60
2019-04-23T03:37:15.105Z,7.17
2019-04-23T03:38:52.025Z,3.80
2019-04-23T03:41:53.900Z,8.57
2019-04-23T03:43:55.057Z,7.00
2019-04-23T03:49:16.881Z,4.13
2019-04-23T03:59:27.133Z,11.87
2019-04-23T04:02:20.923Z,5.53
2019-04-23T04:09:45.748Z,8.30
2019-04-23T04:12:16.515Z,6.80
2019-04-23T04:14:56.786Z,3.30
2019-04-23T04:27:24.614Z,6.27
2019-04-23T04:30:10.736Z,5.33
2019-04-23T04:32:46.901Z,5.67
2019-04-23T04:37:57.921Z,5.70
2019-04-23T04:40:11.004Z,5.20
2019-04-23T04:42:46.174Z,7.03
2019-04-23T04:45:20.340Z,4.20
2019-04-23T04:47:53.664Z,6.60
2019-04-23T04:50:31.358Z,6.47
2019-04-23T04:55:21.491Z,7.30
2019-04-23T04:58:00.531Z,9.53
2019-04-23T05:00:43.850Z,6.03
2019-04-23T05:03:22.278Z,10.77
2019-04-23T05:08:12.942Z,6.67
2019-04-23T05:10:51.903Z,7.13
2019-04-23T05:13:31.972Z,7.60
2019-04-23T05:15:44.596Z,6.67
2019-04-23T05:18:23.987Z,5.63
2019-04-23T05:21:01.866Z,9.10
2019-04-23T05:23:42.754Z,11.13
2019-04-23T05:26:23.943Z,5.20
2019-04-23T05:28:59.594Z,6.10
2019-04-23T05:34:01.474Z,5.83
2019-04-23T05:39:02.038Z,7.73
2019-04-23T05:41:36.924Z,5.27
2019-04-23T05:44:12.130Z,8.20
2019-04-23T05:49:11.057Z,6.90
2019-04-23T05:51:50.778Z,5.67
2019-04-23T05:54:18.968Z,9.30
2019-04-23T05:56:51.680Z,9.10
2019-04-23T05:59:23.052Z,7.70
2019-04-23T06:04:30.688Z,8.67
2019-04-23T06:07:16.982Z,6.37
2019-04-23T06:12:21.540Z,8.57
2019-04-23T06:17:14.525Z,10.47
2019-04-23T06:19:55.131Z,8.70
2019-04-23T06:24:51.118Z,10.23
2019-04-23T06:27:38.666Z,8.00
2019-04-23T06:29:59.298Z,9.57
2019-04-23T06:34:56.614Z,10.53
2019-04-23T06:37:58.724Z,11.97
2019-04-23T06:40:08.336Z,8.03
2019-04-23T06:42:58.242Z,10.80
2019-04-23T06:45:27.641Z,8.23
2019-04-23T06:48:12.011Z,10.13
2019-04-23T06:50:36.596Z,10.03
2019-04-23T06:53:19.737Z,14.43
2019-04-23T06:55:42.537Z,8.43
2019-04-23T06:58:24.026Z,8.37
2019-04-23T07:00:51.277Z,11.53
2019-04-23T07:03:23.140Z,14.60
2019-04-23T07:13:57.785Z,10.30
2019-04-23T07:16:17.919Z,12.20
2019-04-23T07:18:48.705Z,12.93
2019-04-23T07:24:00.678Z,10.17
2019-04-23T07:26:34.842Z,11.43
2019-04-23T07:31:35.111Z,12.70
2019-04-23T07:36:55.103Z,13.93
2019-04-23T07:47:13.159Z,12.03
2019-04-23T07:49:37.781Z,11.20
2019-04-23T07:54:44.117Z,8.90
2019-04-23T07:59:56.903Z,13.37
2019-04-23T08:02:25.926Z,11.83
2019-04-23T08:07:27.108Z,10.97
2019-04-23T08:12:31.598Z,13.30
2019-04-23T08:14:59.998Z,8.17
2019-04-23T08:17:28.106Z,8.90
2019-04-23T08:20:07.943Z,10.57
2019-04-23T08:22:39.603Z,13.60
2019-04-23T08:25:17.853Z,11.63
2019-04-23T08:27:51.516Z,9.47
2019-04-23T08:30:24.129Z,11.00
2019-04-23T08:32:57.398Z,11.87
2019-04-23T08:35:34.507Z,12.70
2019-04-23T08:40:33.876Z,13.87
2019-04-23T08:43:20.866Z,11.10
2019-04-23T08:45:55.096Z,9.57
2019-04-23T08:51:28.293Z,11.63
2019-04-23T08:53:49.994Z,12.57
2019-04-23T08:56:08.775Z,11.10
2019-04-23T08:58:38.071Z,12.10
2019-04-23T09:01:16.959Z,15.23
2019-04-23T09:03:39.146Z,12.90
2019-04-23T09:06:20.239Z,11.37
2019-04-23T09:09:08.900Z,10.40
2019-04-23T09:11:35.804Z,14.20
2019-04-23T09:16:31.282Z,13.27
2019-04-23T09:19:11.334Z,13.57
2019-04-23T09:21:34.526Z,13.90
2019-04-23T09:24:03.837Z,15.33
2019-04-23T09:26:49.323Z,11.20
2019-04-23T09:29:19.212Z,14.83
2019-04-23T09:34:31.526Z,12.90
2019-04-23T09:37:05.001Z,11.13
2019-04-23T09:39:42.802Z,14.87
2019-04-23T09:42:22.365Z,16.10
2019-04-23T09:44:58.341Z,14.67
2019-04-23T09:47:53.493Z,13.03
2019-04-23T09:50:23.662Z,11.37
2019-04-23T09:53:08.538Z,12.13
2019-04-23T09:55:32.223Z,15.67
2019-04-23T10:00:40.732Z,11.63
2019-04-23T10:02:53.328Z,11.50
2019-04-23T10:05:22.179Z,10.87
2019-04-23T10:07:50.826Z,12.13
2019-04-23T10:10:12.305Z,12.00
2019-04-23T10:12:43.945Z,12.53
2019-04-23T10:15:22.550Z,12.23
2019-04-23T10:17:47.484Z,12.37
2019-04-23T10:20:22.556Z,15.07
2019-04-23T10:22:54.590Z,11.20
2019-04-23T10:25:25.899Z,11.83
2019-04-23T10:28:04.610Z,19.23
2019-04-23T10:30:31.086Z,15.23
2019-04-23T10:33:03.331Z,14.77
2019-04-23T10:35:44.494Z,14.20
2019-04-23T10:38:10.913Z,14.20
2019-04-23T10:40:42.778Z,11.73
2019-04-23T10:43:09.876Z,16.87
2019-04-23T10:46:11.379Z,14.83
2019-04-23T10:49:00.526Z,13.33
2019-04-23T10:54:25.119Z,12.90
2019-04-23T10:56:44.970Z,12.80
2019-04-23T10:59:34.918Z,18.67
2019-04-23T11:07:28.538Z,14.07
2019-04-23T11:15:11.259Z,12.63
2019-04-23T11:17:38.656Z,15.53
2019-04-23T11:25:21.647Z,11.20
2019-04-23T11:27:52.204Z,11.87
2019-04-23T11:30:26.292Z,13.17
2019-04-23T11:33:09.200Z,13.77
2019-04-23T11:35:31.314Z,14.87
2019-04-23T11:38:35.470Z,14.40
2019-04-23T11:40:25.467Z,13.80
2019-04-23T11:51:05.082Z,9.23
2019-04-23T11:53:10.084Z,12.60
2019-04-23T11:58:33.975Z,12.00
2019-04-23T12:01:18.843Z,10.70
2019-04-23T12:03:45.418Z,13.83
2019-04-23T12:06:30.821Z,12.40
2019-04-23T12:09:25.901Z,13.17
2019-04-23T12:14:42.085Z,12.83
2019-04-23T12:17:47.124Z,13.97
2019-04-23T12:35:04.279Z,11.93
2019-04-23T12:37:55.604Z,14.37
2019-04-23T12:45:31.718Z,16.53
2019-04-23T12:48:09.732Z,10.83
2019-04-23T12:53:10.591Z,10.73
2019-04-23T12:55:40.326Z,11.20
2019-04-23T12:58:20.172Z,12.07
2019-04-23T13:00:40.017Z,10.33
2019-04-23T13:05:43.523Z,10.03
2019-04-23T13:08:41.559Z,10.87
2019-04-23T13:11:22.843Z,8.47
2019-04-23T13:13:44.459Z,12.33
2019-04-23T13:18:44.735Z,9.07
2019-04-23T13:21:38.393Z,13.03
2019-04-23T13:24:04.322Z,10.60
2019-04-23T13:26:37.993Z,13.70
2019-04-23T13:29:19.955Z,11.60
2019-04-23T13:31:39.992Z,12.07
2019-04-23T13:34:25.878Z,10.20
2019-04-23T13:36:51.300Z,10.27
2019-04-23T13:39:29.131Z,10.37
2019-04-23T13:41:52.520Z,11.13
2019-04-23T13:44:26.402Z,9.70
2019-04-23T13:47:00.988Z,13.10
2019-04-23T13:49:33.230Z,10.43
2019-04-23T13:52:06.203Z,16.87
2019-04-23T13:54:56.570Z,12.00
2019-04-23T13:57:36.525Z,9.93
2019-04-23T13:59:44.451Z,9.43
2019-04-23T14:02:23.473Z,12.57
2019-04-23T14:04:56.100Z,13.20
2019-04-23T14:07:23.320Z,9.57
2019-04-23T14:10:13.151Z,9.73
2019-04-23T14:12:22.179Z,8.20
2019-04-23T14:15:04.913Z,11.70
2019-04-23T14:23:08.252Z,8.23
2019-04-23T14:25:31.460Z,9.47
2019-04-23T14:28:16.084Z,11.00
2019-04-23T14:30:44.560Z,11.90
2019-04-23T14:33:20.638Z,10.97
2019-04-23T14:35:46.330Z,9.13
2019-04-23T14:41:07.764Z,12.93
2019-04-23T14:43:21.946Z,13.07
2019-04-23T14:46:23.371Z,13.97
2019-04-23T14:48:22.241Z,13.67
2019-04-23T14:51:06.909Z,13.03
2019-04-23T14:53:33.730Z,9.80
2019-04-23T15:13:53.947Z,10.10
2019-04-23T15:19:10.929Z,9.87
2019-04-23T15:24:14.016Z,8.87
2019-04-23T15:28:56.195Z,8.93
2019-04-23T15:31:52.317Z,7.63
2019-04-23T15:37:00.927Z,9.73
2019-04-23T15:39:42.868Z,8.13
2019-04-23T15:42:08.433Z,12.73
2019-04-23T15:44:23.223Z,13.07
2019-04-23T15:49:35.286Z,8.97
2019-04-23T15:54:50.868Z,11.60
2019-04-23T15:57:18.138Z,9.57
2019-04-23T16:01:48.164Z,8.20
2019-04-23T16:04:20.032Z,8.90
2019-04-23T16:06:52.006Z,10.97
2019-04-23T16:09:59.835Z,8.97
2019-04-23T16:12:24.570Z,8.57
2019-04-23T16:15:03.744Z,8.80
2019-04-23T16:17:37.114Z,7.17
2019-04-23T16:22:36.624Z,7.10
2019-04-23T16:27:46.871Z,8.40
2019-04-23T16:33:05.583Z,7.97
2019-04-23T16:38:23.273Z,12.50
2019-04-23T16:43:08.936Z,10.53
2019-04-23T16:45:36.840Z,7.83
2019-04-23T16:48:28.138Z,8.63
2019-04-23T16:51:00.731Z,7.33
2019-04-23T16:53:20.961Z,9.37
2019-04-23T16:55:56.542Z,7.87
2019-04-23T16:58:42.121Z,10.30
2019-04-23T17:03:31.331Z,8.17
2019-04-23T17:06:15.642Z,13.03
2019-04-23T17:11:16.051Z,9.80
2019-04-23T17:13:38.049Z,13.80
2019-04-23T17:16:15.234Z,10.40
2019-04-23T17:18:48.813Z,35.33
2019-04-23T17:21:16.912Z,10.73
2019-04-23T17:26:25.600Z,11.00
2019-04-23T17:29:03.571Z,10.03
2019-04-23T17:34:09.095Z,9.07
2019-04-23T17:36:36.312Z,10.57
2019-04-23T17:39:08.104Z,7.47
2019-04-23T17:44:38.619Z,10.63
2019-04-23T17:47:00.467Z,10.33
2019-04-23T17:49:35.180Z,9.30
2019-04-23T17:54:43.031Z,13.10
2019-04-23T18:00:04.847Z,15.93
2019-04-23T18:05:02.559Z,10.43
2019-04-23T18:07:44.313Z,18.53
2019-04-23T18:15:04.913Z,13.20
2019-04-23T18:17:43.319Z,11.40
2019-04-23T18:20:23.133Z,16.03
2019-04-23T18:23:00.726Z,12.40
2019-04-23T18:25:30.792Z,40.13
2019-04-23T18:28:00.590Z,27.17
2019-04-23T18:30:56.678Z,16.13
2019-04-23T18:36:11.624Z,21.50
2019-04-23T18:38:49.604Z,11.67
2019-04-23T18:43:51.170Z,15.27
2019-04-23T18:46:27.913Z,11.83
2019-04-23T18:51:21.416Z,13.77
2019-04-23T18:53:52.711Z,16.37
2019-04-23T18:56:42.051Z,12.43
2019-04-23T18:59:16.099Z,18.07
2019-04-23T19:02:02.965Z,18.80
2019-04-23T19:04:54.328Z,14.63
2019-04-23T19:07:07.750Z,10.47
2019-04-23T19:10:04.354Z,21.33
2019-04-23T19:12:38.238Z,18.47
2019-04-23T19:15:17.115Z,12.63
2019-04-23T19:17:48.251Z,11.97
2019-04-23T19:20:15.134Z,8.43
2019-04-23T19:22:46.183Z,10.37
2019-04-23T19:25:20.812Z,10.40
2019-04-23T19:27:59.406Z,10.67
2019-04-23T19:30:37.067Z,14.40
2019-04-23T19:33:13.893Z,15.40
2019-04-23T19:40:51.778Z,21.37
2019-04-23T19:43:18.183Z,20.30
2019-04-23T19:46:16.110Z,13.93
2019-04-23T19:48:34.331Z,14.80
2019-04-23T19:53:43.711Z,16.07
2019-04-23T19:56:16.416Z,10.20
2019-04-23T20:01:15.188Z,11.17
2019-04-23T20:06:27.281Z,13.20
2019-04-23T20:09:12.667Z,10.10
2019-04-23T20:11:26.544Z,13.73
2019-04-23T20:16:40.029Z,11.90
2019-04-23T20:19:16.404Z,12.70
2019-04-23T20:21:41.264Z,13.77
2019-04-23T20:24:20.394Z,12.33
2019-04-23T20:26:29.158Z,12.93
2019-04-23T20:29:45.425Z,10.97
2019-04-23T20:37:05.514Z,10.50
2019-04-23T20:44:53.904Z,9.73
2019-04-23T20:47:37.200Z,9.47
2019-04-23T20:52:15.284Z,14.53
2019-04-23T21:00:12.283Z,14.37
2019-04-23T21:05:16.038Z,11.50
2019-04-23T21:07:57.530Z,15.33
2019-04-23T21:10:37.256Z,11.80
2019-04-23T21:18:06.220Z,10.57
2019-04-23T21:20:36.563Z,13.97
2019-04-23T21:23:11.251Z,10.43
2019-04-23T21:25:43.827Z,16.40
2019-04-23T21:28:38.642Z,12.53
2019-04-23T21:31:06.575Z,12.47
2019-04-23T21:33:50.795Z,15.20
2019-04-23T21:36:22.314Z,15.33
2019-04-23T21:41:54.796Z,16.40
2019-04-23T21:44:13.500Z,12.80
2019-04-23T21:46:54.261Z,11.57
2019-04-23T21:49:25.145Z,14.63
2019-04-23T21:51:51.158Z,9.20
2019-04-23T21:54:20.842Z,13.40
2019-04-23T21:56:54.130Z,14.87
2019-04-23T21:59:28.606Z,15.77
2019-04-23T22:04:40.091Z,16.47
2019-04-23T22:07:07.033Z,20.20
2019-04-23T22:09:55.511Z,15.23
2019-04-23T22:12:15.451Z,10.20
2019-04-23T22:14:55.653Z,13.53
2019-04-23T22:17:25.963Z,10.20
2019-04-23T22:20:03.081Z,10.77
2019-04-23T22:22:28.106Z,10.83
2019-04-23T22:24:59.264Z,10.17
2019-04-23T22:27:28.214Z,11.07
2019-04-23T22:30:01.303Z,13.87
2019-04-23T22:32:54.173Z,10.63
2019-04-23T22:35:07.931Z,14.20
2019-04-23T22:37:42.436Z,14.40
2019-04-23T22:40:11.994Z,13.57
2019-04-23T22:43:13.219Z,13.57
2019-04-23T22:45:16.128Z,15.10
2019-04-23T22:50:29.619Z,12.67
2019-04-23T22:52:53.755Z,10.47
2019-04-23T22:55:27.256Z,10.87
2019-04-23T22:58:06.527Z,14.87
2019-04-23T23:00:27.454Z,12.20
2019-04-23T23:03:11.611Z,12.00
2019-04-23T23:08:32.183Z,15.10
2019-04-23T23:11:03.877Z,9.53
2019-04-23T23:13:48.324Z,10.60
2019-04-23T23:18:57.436Z,13.83
2019-04-23T23:23:49.695Z,12.97
2019-04-23T23:26:15.995Z,10.87
2019-04-23T23:28:44.639Z,13.33
2019-04-23T23:31:24.369Z,13.73
2019-04-23T23:34:04.451Z,12.20
2019-04-23T23:36:28.519Z,13.83
2019-04-23T23:39:11.948Z,14.13
2019-04-23T23:41:31.816Z,14.83
2019-04-23T23:44:27.714Z,10.53
2019-04-23T23:51:45.170Z,10.90
2019-04-23T23:57:01.384Z,11.33
2019-04-23T23:59:24.696Z,11.57
